createdAt,value
2024-03-16T00:02:15.023Z,19.70
2024-03-16T00:04:43.641Z,21.00
2024-03-16T00:07:09.857Z,22.50
2024-03-16T00:09:36.124Z,22.00
2024-03-16T00:12:02.530Z,20.00
2024-03-16T00:14:29.222Z,19.70
2024-03-16T00:16:55.915Z,22.90
2024-03-16T00:19:22.115Z,20.00
2024-03-16T00:21:48.408Z,22.20
2024-03-16T00:24:14.915Z,21.20
2024-03-16T00:26:41.511Z,21.00
2024-03-16T00:29:07.938Z,19.60
2024-03-16T00:31:34.378Z,20.50
2024-03-16T00:34:00.788Z,19.60
2024-03-16T00:36:27.260Z,21.10
2024-03-16T00:38:53.585Z,19.70
2024-03-16T00:41:20.570Z,19.00
2024-03-16T00:43:46.942Z,18.80
2024-03-16T00:46:13.668Z,17.70
2024-03-16T00:48:39.978Z,17.70
2024-03-16T00:51:06.374Z,16.90
2024-03-16T00:53:33.098Z,20.50
2024-03-16T00:55:59.520Z,19.30
2024-03-16T00:58:25.834Z,17.30
2024-03-16T01:00:52.554Z,23.20
2024-03-16T01:03:18.820Z,23.40
2024-03-16T01:05:46.876Z,24.70
2024-03-16T01:08:13.076Z,23.90
2024-03-16T01:10:39.762Z,21.80
2024-03-16T01:13:06.124Z,21.50
2024-03-16T01:15:33.203Z,18.60
2024-03-16T01:17:59.615Z,17.40
2024-03-16T01:20:28.347Z,21.20
2024-03-16T01:22:54.895Z,19.50
2024-03-16T01:25:21.302Z,21.70
2024-03-16T01:27:47.577Z,20.50
2024-03-16T01:30:15.784Z,19.60
2024-03-16T01:32:42.134Z,19.80
2024-03-16T01:35:10.229Z,19.30
2024-03-16T01:37:36.455Z,16.60
2024-03-16T01:40:02.823Z,18.60
2024-03-16T01:42:29.217Z,17.60
2024-03-16T01:44:55.533Z,16.30
2024-03-16T01:47:22.170Z,15.70
2024-03-16T01:49:48.447Z,17.60
2024-03-16T01:52:14.855Z,15.20
2024-03-16T01:54:41.054Z,14.40
2024-03-16T01:57:07.430Z,16.40
2024-03-16T01:59:34.439Z,15.10
2024-03-16T02:02:00.697Z,15.30
2024-03-16T02:04:26.925Z,14.60
2024-03-16T02:06:53.134Z,14.60
2024-03-16T02:09:20.166Z,14.20
2024-03-16T02:11:46.722Z,13.70
2024-03-16T02:14:13.327Z,13.80
2024-03-16T02:16:40.157Z,13.50
2024-03-16T02:19:07.933Z,12.80
2024-03-16T02:21:35.380Z,13.20
2024-03-16T02:24:01.626Z,11.50
2024-03-16T02:26:27.964Z,14.20
2024-03-16T02:28:54.202Z,14.10
2024-03-16T02:31:20.448Z,14.20
2024-03-16T02:33:46.731Z,13.70
2024-03-16T02:36:13.756Z,14.00
2024-03-16T02:38:40.860Z,15.40
2024-03-16T02:41:08.040Z,14.40
2024-03-16T02:43:34.649Z,14.60
2024-03-16T02:46:00.980Z,15.70
2024-03-16T02:48:27.517Z,12.90
2024-03-16T02:50:53.941Z,13.70
2024-03-16T02:53:20.153Z,13.60
2024-03-16T02:55:46.382Z,13.50
2024-03-16T02:58:13.568Z,14.50
2024-03-16T03:00:39.937Z,15.10
2024-03-16T03:03:07.606Z,15.00
2024-03-16T03:05:34.057Z,14.20
2024-03-16T03:08:00.179Z,12.00
2024-03-16T03:10:26.398Z,12.90
2024-03-16T03:12:52.733Z,12.80
2024-03-16T03:15:20.443Z,14.20
2024-03-16T03:17:46.871Z,13.90
2024-03-16T03:20:13.892Z,14.70
2024-03-16T03:22:40.307Z,13.20
2024-03-16T03:25:06.830Z,13.50
2024-03-16T03:27:34.296Z,14.50
2024-03-16T03:30:00.501Z,13.00
2024-03-16T03:32:27.052Z,15.50
2024-03-16T03:34:53.305Z,13.70
2024-03-16T03:37:21.327Z,14.20
2024-03-16T03:39:49.004Z,14.00
2024-03-16T03:42:15.363Z,12.70
2024-03-16T03:44:50.566Z,14.70
2024-03-16T03:47:16.848Z,13.30
2024-03-16T03:49:51.025Z,12.40
2024-03-16T03:52:17.681Z,12.70
2024-03-16T03:54:44.235Z,11.60
2024-03-16T03:57:11.339Z,11.00
2024-03-16T03:59:37.661Z,9.50
2024-03-16T04:02:03.991Z,10.10
2024-03-16T04:04:30.340Z,12.50
2024-03-16T04:06:56.722Z,13.50
2024-03-16T04:09:22.966Z,14.50
2024-03-16T04:11:49.321Z,15.10
2024-03-16T04:14:15.581Z,14.10
2024-03-16T04:16:41.792Z,15.70
2024-03-16T04:19:08.238Z,12.90
2024-03-16T04:21:34.647Z,14.50
2024-03-16T04:24:01.001Z,13.20
2024-03-16T04:26:27.584Z,14.90
2024-03-16T04:28:54.367Z,12.60
2024-03-16T04:31:20.587Z,11.70
2024-03-16T04:33:47.037Z,13.60
2024-03-16T04:36:14.473Z,15.90
2024-03-16T04:38:41.300Z,14.30
2024-03-16T04:41:07.830Z,12.30
2024-03-16T04:43:34.650Z,11.90
2024-03-16T04:46:00.947Z,13.20
2024-03-16T04:48:27.353Z,13.30
2024-03-16T04:50:53.649Z,13.10
2024-03-16T04:53:19.826Z,13.90
2024-03-16T04:55:46.198Z,15.20
2024-03-16T04:58:12.525Z,14.50
2024-03-16T05:00:39.177Z,13.20
2024-03-16T05:03:05.531Z,11.70
2024-03-16T05:05:31.840Z,13.00
2024-03-16T05:07:58.209Z,13.80
2024-03-16T05:10:25.421Z,10.80
2024-03-16T05:12:51.695Z,13.30
2024-03-16T05:15:17.915Z,14.60
2024-03-16T05:17:44.242Z,15.00
2024-03-16T05:20:11.150Z,12.30
2024-03-16T05:22:38.288Z,14.90
2024-03-16T05:25:05.875Z,15.20
2024-03-16T05:27:32.230Z,13.30
2024-03-16T05:29:58.715Z,13.00
2024-03-16T05:32:24.997Z,12.50
2024-03-16T05:34:51.391Z,10.20
2024-03-16T05:37:18.256Z,11.70
2024-03-16T05:39:44.523Z,11.10
2024-03-16T05:42:11.904Z,11.50
2024-03-16T05:44:38.339Z,11.80
2024-03-16T05:47:04.626Z,13.10
2024-03-16T05:49:30.786Z,11.80
2024-03-16T05:51:57.105Z,9.10
2024-03-16T05:54:23.374Z,8.40
2024-03-16T05:56:50.161Z,6.90
2024-03-16T05:59:16.399Z,7.00
2024-03-16T06:01:43.515Z,7.10
2024-03-16T06:04:10.020Z,7.10
2024-03-16T06:06:36.337Z,7.50
2024-03-16T06:09:04.170Z,6.30
2024-03-16T06:11:32.204Z,7.60
2024-03-16T06:13:58.596Z,8.70
2024-03-16T06:16:24.793Z,8.50
2024-03-16T06:18:51.091Z,6.90
2024-03-16T06:21:17.405Z,8.00
2024-03-16T06:23:43.916Z,8.80
2024-03-16T06:26:17.370Z,6.60
2024-03-16T06:28:47.331Z,7.60
2024-03-16T06:31:13.988Z,8.00
2024-03-16T06:33:45.944Z,7.80
2024-03-16T06:36:12.343Z,8.60
2024-03-16T06:38:38.524Z,8.20
2024-03-16T06:41:04.890Z,7.20
2024-03-16T06:43:31.053Z,8.30
2024-03-16T06:45:57.373Z,8.40
2024-03-16T06:48:23.669Z,7.00
2024-03-16T06:50:50.021Z,7.80
2024-03-16T06:53:16.340Z,6.20
2024-03-16T06:55:42.817Z,5.80
2024-03-16T06:58:10.634Z,7.50
2024-03-16T07:00:38.008Z,6.50
2024-03-16T07:03:05.147Z,7.50
2024-03-16T07:05:31.401Z,8.40
2024-03-16T07:07:58.321Z,7.90
2024-03-16T07:10:24.591Z,8.10
2024-03-16T07:12:50.854Z,8.60
2024-03-16T07:15:17.221Z,9.00
2024-03-16T07:17:43.544Z,8.50
2024-03-16T07:20:11.607Z,9.20
2024-03-16T07:22:38.904Z,8.70
2024-03-16T07:25:05.726Z,9.40
2024-03-16T07:27:32.732Z,8.00
2024-03-16T07:29:59.790Z,9.00
2024-03-16T07:32:26.737Z,9.00
2024-03-16T07:34:52.932Z,10.50
2024-03-16T07:37:19.228Z,10.80
2024-03-16T07:39:45.604Z,12.40
2024-03-16T07:42:11.784Z,11.80
2024-03-16T07:44:41.046Z,12.30
2024-03-16T07:47:07.251Z,12.40
2024-03-16T07:49:33.404Z,10.00
2024-03-16T07:52:00.399Z,8.00
2024-03-16T07:54:26.729Z,8.80
2024-03-16T07:56:52.997Z,8.70
2024-03-16T07:59:20.194Z,8.00
2024-03-16T08:01:46.469Z,8.50
2024-03-16T08:04:12.786Z,7.90
2024-03-16T08:06:39.270Z,8.00
2024-03-16T08:09:12.419Z,8.20
2024-03-16T08:11:38.804Z,8.00
2024-03-16T08:14:11.711Z,7.50
2024-03-16T08:16:37.921Z,8.10
2024-03-16T08:19:04.264Z,8.00
2024-03-16T08:21:30.845Z,7.80
2024-03-16T08:23:57.324Z,7.20
2024-03-16T08:26:23.674Z,6.90
2024-03-16T08:28:49.855Z,7.40
2024-03-16T08:31:16.359Z,6.70
2024-03-16T08:33:42.994Z,6.80
2024-03-16T08:36:09.218Z,7.40
2024-03-16T08:38:36.699Z,7.00
2024-03-16T08:41:06.059Z,7.90
2024-03-16T08:43:32.882Z,8.00
2024-03-16T08:45:59.160Z,7.50
2024-03-16T08:48:25.571Z,6.00
2024-03-16T08:50:51.915Z,6.60
2024-03-16T08:53:18.080Z,6.20
2024-03-16T08:55:44.863Z,5.80
2024-03-16T08:58:11.449Z,6.10
2024-03-16T09:00:37.722Z,7.30
2024-03-16T09:03:05.307Z,7.10
2024-03-16T09:05:31.647Z,6.60
2024-03-16T09:07:57.987Z,6.40
2024-03-16T09:10:24.219Z,6.80
2024-03-16T09:12:50.547Z,8.20
2024-03-16T09:15:16.989Z,7.70
2024-03-16T09:17:43.453Z,8.00
2024-03-16T09:20:10.613Z,7.60
2024-03-16T09:22:37.169Z,7.10
2024-03-16T09:25:06.756Z,8.00
2024-03-16T09:27:34.235Z,10.30
2024-03-16T09:30:00.569Z,8.40
2024-03-16T09:32:26.856Z,8.80
2024-03-16T09:34:53.174Z,8.50
2024-03-16T09:37:19.583Z,8.20
2024-03-16T09:39:45.823Z,8.20
2024-03-16T09:42:12.978Z,9.80
2024-03-16T09:44:39.242Z,9.70
2024-03-16T09:47:06.298Z,9.80
2024-03-16T09:49:35.801Z,10.00
2024-03-16T09:52:02.028Z,11.10
2024-03-16T09:54:28.637Z,9.90
2024-03-16T09:56:54.832Z,10.50
2024-03-16T09:59:30.500Z,10.60
2024-03-16T10:01:57.501Z,10.10
2024-03-16T10:04:23.749Z,8.30
2024-03-16T10:06:50.083Z,8.30
2024-03-16T10:09:16.474Z,8.40
2024-03-16T10:11:43.883Z,7.80
2024-03-16T10:14:10.526Z,7.70
2024-03-16T10:16:40.881Z,8.60
2024-03-16T10:19:07.200Z,7.00
2024-03-16T10:21:33.504Z,8.30
2024-03-16T10:23:59.806Z,8.30
2024-03-16T10:26:30.725Z,8.50
2024-03-16T10:28:57.078Z,9.00
2024-03-16T10:31:23.284Z,8.90
2024-03-16T10:33:49.570Z,8.40
2024-03-16T10:36:16.419Z,9.30
2024-03-16T10:38:42.794Z,9.90
2024-03-16T10:41:09.562Z,15.80
2024-03-16T10:43:36.356Z,10.20
2024-03-16T10:46:02.686Z,14.10
2024-03-16T10:48:29.191Z,14.10
2024-03-16T10:50:57.594Z,23.90
2024-03-16T10:53:25.955Z,34.80
2024-03-16T10:55:53.342Z,15.50
2024-03-16T10:58:20.390Z,10.00
2024-03-16T11:00:46.640Z,11.80
2024-03-16T11:03:12.989Z,11.60
2024-03-16T11:05:49.507Z,13.90
2024-03-16T11:08:15.785Z,24.90
2024-03-16T11:10:42.781Z,20.70
2024-03-16T11:13:09.182Z,10.90
2024-03-16T11:15:37.691Z,9.40
2024-03-16T11:18:04.342Z,9.40
2024-03-16T11:20:31.740Z,8.30
2024-03-16T11:22:57.971Z,9.50
2024-03-16T11:25:24.275Z,8.20
2024-03-16T11:27:50.704Z,8.40
2024-03-16T11:30:29.723Z,8.90
2024-03-16T11:33:00.752Z,7.80
2024-03-16T11:35:27.786Z,8.60
2024-03-16T11:37:54.152Z,7.10
2024-03-16T11:40:28.001Z,8.10
2024-03-16T11:42:54.395Z,8.30
2024-03-16T11:45:20.700Z,8.50
2024-03-16T11:47:46.932Z,7.90
2024-03-16T11:50:14.487Z,7.60
2024-03-16T11:52:40.788Z,7.80
2024-03-16T11:55:07.335Z,9.40
2024-03-16T11:57:34.028Z,7.40
2024-03-16T12:00:00.199Z,7.60
2024-03-16T12:02:26.393Z,7.90
2024-03-16T12:04:53.362Z,6.00
2024-03-16T12:07:19.474Z,7.70
2024-03-16T12:09:46.037Z,7.50
2024-03-16T12:12:12.271Z,7.50
2024-03-16T12:14:43.301Z,7.50
2024-03-16T12:17:10.182Z,7.90
2024-03-16T12:19:38.490Z,7.90
2024-03-16T12:22:06.928Z,7.40
2024-03-16T12:24:33.203Z,7.80
2024-03-16T12:26:59.408Z,7.30
2024-03-16T12:29:25.657Z,7.40
2024-03-16T12:31:57.048Z,7.40
2024-03-16T12:34:25.354Z,7.60
2024-03-16T12:36:55.034Z,7.60
2024-03-16T12:39:25.660Z,9.10
2024-03-16T12:41:51.920Z,7.50
2024-03-16T12:44:18.341Z,11.30
2024-03-16T12:46:47.394Z,9.30
2024-03-16T12:49:13.582Z,8.20
2024-03-16T12:51:39.907Z,8.70
2024-03-16T12:54:08.484Z,7.50
2024-03-16T12:56:41.247Z,7.70
2024-03-16T12:59:07.803Z,7.10
2024-03-16T13:01:34.493Z,7.70
2024-03-16T13:04:00.693Z,6.20
2024-03-16T13:06:27.896Z,4.90
2024-03-16T13:08:54.189Z,3.90
2024-03-16T13:11:25.618Z,5.40
2024-03-16T13:13:51.796Z,8.60
2024-03-16T13:16:18.428Z,8.20
2024-03-16T13:18:44.774Z,4.30
2024-03-16T13:21:14.073Z,6.10
2024-03-16T13:23:40.327Z,5.10
2024-03-16T13:26:06.481Z,3.20
2024-03-16T13:28:33.968Z,3.20
2024-03-16T13:31:00.201Z,5.90
2024-03-16T13:33:26.444Z,5.20
2024-03-16T13:35:54.563Z,4.60
2024-03-16T13:38:20.795Z,9.70
2024-03-16T13:40:47.071Z,4.60
2024-03-16T13:43:14.302Z,7.60
2024-03-16T13:45:40.973Z,5.50
2024-03-16T13:48:08.028Z,3.20
2024-03-16T13:50:34.173Z,3.00
2024-03-16T13:53:00.479Z,3.60
2024-03-16T13:55:28.183Z,8.50
2024-03-16T13:57:56.515Z,4.20
2024-03-16T14:00:23.050Z,3.20
2024-03-16T14:02:52.208Z,6.40
2024-03-16T14:05:19.759Z,6.30
2024-03-16T14:07:48.120Z,4.80
2024-03-16T14:10:18.523Z,4.40
2024-03-16T14:12:54.277Z,3.00
2024-03-16T14:15:20.529Z,2.90
2024-03-16T14:17:46.693Z,3.60
2024-03-16T14:20:19.256Z,3.30
2024-03-16T14:22:45.495Z,3.80
2024-03-16T14:25:12.110Z,2.60
2024-03-16T14:27:39.209Z,4.20
2024-03-16T14:30:13.851Z,3.40
2024-03-16T14:32:40.631Z,3.20
2024-03-16T14:35:09.948Z,2.80
2024-03-16T14:37:36.136Z,2.70
2024-03-16T14:40:10.399Z,2.40
2024-03-16T14:42:36.750Z,2.90
2024-03-16T14:45:02.984Z,2.50
2024-03-16T14:47:29.879Z,2.50
2024-03-16T14:49:56.995Z,3.00
2024-03-16T14:52:23.322Z,2.30
2024-03-16T14:54:49.676Z,2.20
2024-03-16T14:57:18.541Z,2.90
2024-03-16T14:59:45.440Z,2.50
2024-03-16T15:02:11.772Z,2.70
2024-03-16T15:04:38.231Z,2.30
2024-03-16T15:07:05.408Z,2.30
2024-03-16T15:09:31.604Z,2.90
2024-03-16T15:11:58.276Z,3.30
2024-03-16T15:14:24.442Z,4.20
2024-03-16T15:16:50.616Z,6.20
2024-03-16T15:19:16.840Z,4.80
2024-03-16T15:21:43.502Z,27.90
2024-03-16T15:24:09.832Z,9.00
2024-03-16T15:26:46.790Z,5.70
2024-03-16T15:29:13.082Z,4.10
2024-03-16T15:31:39.451Z,3.70
2024-03-16T15:34:05.695Z,3.00
2024-03-16T15:36:31.992Z,4.50
2024-03-16T15:38:59.904Z,3.40
2024-03-16T15:41:27.109Z,3.10
2024-03-16T15:43:53.687Z,4.00
2024-03-16T15:46:20.272Z,4.90
2024-03-16T15:48:46.819Z,4.80
2024-03-16T15:51:13.397Z,5.30
2024-03-16T15:53:40.686Z,4.80
2024-03-16T15:56:07.070Z,6.90
2024-03-16T15:58:33.494Z,6.40
2024-03-16T16:00:59.907Z,6.90
2024-03-16T16:03:26.385Z,9.90
2024-03-16T16:05:52.978Z,7.40
2024-03-16T16:11:10.780Z,16.50
2024-03-16T16:13:37.220Z,11.80
2024-03-16T16:16:03.715Z,6.40
2024-03-16T16:18:30.303Z,8.30
2024-03-16T16:20:56.757Z,7.30
2024-03-16T16:23:23.235Z,8.60
2024-03-16T16:25:49.528Z,6.80
2024-03-16T16:28:16.214Z,6.70
2024-03-16T16:30:42.706Z,9.90
2024-03-16T16:33:09.337Z,10.20
2024-03-16T16:35:37.494Z,11.50
2024-03-16T16:38:05.129Z,21.20
2024-03-16T16:40:31.734Z,18.30
2024-03-16T16:42:58.071Z,15.10
2024-03-16T16:45:24.758Z,12.30
2024-03-16T16:47:51.190Z,16.60
2024-03-16T16:50:17.579Z,8.90
2024-03-16T16:52:44.395Z,5.60
2024-03-16T16:55:11.175Z,4.00
2024-03-16T16:57:37.541Z,2.80
2024-03-16T17:00:10.329Z,3.60
2024-03-16T17:02:36.941Z,6.00
2024-03-16T17:05:03.249Z,8.80
2024-03-16T17:07:29.566Z,6.70
2024-03-16T17:09:56.337Z,4.30
2024-03-16T17:12:22.635Z,4.80
2024-03-16T17:14:48.960Z,6.30
2024-03-16T17:17:15.158Z,7.30
2024-03-16T17:19:41.359Z,14.20
2024-03-16T17:22:09.541Z,10.30
2024-03-16T17:24:35.939Z,7.00
2024-03-16T17:27:03.408Z,6.50
2024-03-16T17:29:34.318Z,7.00
2024-03-16T17:32:00.496Z,8.90
2024-03-16T17:34:26.799Z,14.90
2024-03-16T17:36:54.040Z,10.30
2024-03-16T17:39:23.841Z,10.30
2024-03-16T17:41:53.829Z,9.20
2024-03-16T17:44:20.344Z,8.00
2024-03-16T17:46:46.728Z,8.10
2024-03-16T17:49:13.081Z,8.20
2024-03-16T17:51:41.247Z,15.10
2024-03-16T17:54:08.352Z,13.40
2024-03-16T17:56:34.675Z,12.20
2024-03-16T17:59:01.770Z,14.50
2024-03-16T18:01:28.018Z,11.70
2024-03-16T18:03:54.489Z,12.40
2024-03-16T18:06:21.430Z,11.30
2024-03-16T18:08:47.937Z,9.70
2024-03-16T18:11:14.489Z,10.70
2024-03-16T18:13:40.734Z,10.10
2024-03-16T18:16:07.133Z,8.50
2024-03-16T18:18:33.417Z,14.80
2024-03-16T18:20:59.689Z,12.30
2024-03-16T18:23:26.751Z,9.20
2024-03-16T18:25:52.947Z,9.20
2024-03-16T18:28:20.365Z,9.50
2024-03-16T18:30:46.641Z,8.70
2024-03-16T18:33:13.334Z,10.50
2024-03-16T18:35:41.356Z,12.60
2024-03-16T18:38:07.663Z,13.00
2024-03-16T18:40:37.966Z,18.30
2024-03-16T18:43:07.784Z,21.60
2024-03-16T18:45:37.467Z,29.40
2024-03-16T18:48:04.231Z,25.40
2024-03-16T18:50:32.229Z,21.70
2024-03-16T18:52:58.679Z,17.60
2024-03-16T18:55:28.883Z,19.80
2024-03-16T18:58:01.023Z,24.90
2024-03-16T19:00:39.090Z,29.10
2024-03-16T19:03:06.159Z,29.20
2024-03-16T19:05:32.634Z,26.50
2024-03-16T19:07:59.071Z,17.50
2024-03-16T19:10:25.452Z,15.20
2024-03-16T19:12:51.919Z,18.00
2024-03-16T19:15:19.209Z,19.90
2024-03-16T19:17:53.114Z,17.60
2024-03-16T19:20:22.978Z,18.50
2024-03-16T19:22:49.752Z,19.70
2024-03-16T19:25:16.753Z,18.00
2024-03-16T19:27:43.066Z,15.90
2024-03-16T19:30:12.532Z,15.20
2024-03-16T19:32:39.949Z,21.40
2024-03-16T19:35:06.148Z,22.60
2024-03-16T19:37:32.859Z,28.80
2024-03-16T19:39:59.384Z,23.30
2024-03-16T19:42:26.671Z,22.20
2024-03-16T19:44:52.948Z,21.60
2024-03-16T19:47:19.192Z,21.50
2024-03-16T19:49:45.728Z,18.30
2024-03-16T19:52:12.050Z,21.00
2024-03-16T19:54:38.979Z,21.40
2024-03-16T19:57:05.427Z,18.00
2024-03-16T19:59:31.653Z,16.50
2024-03-16T20:01:57.891Z,20.70
2024-03-16T20:04:24.109Z,39.90
2024-03-16T20:06:55.379Z,40.20
2024-03-16T20:09:22.368Z,36.60
2024-03-16T20:11:49.029Z,42.30
2024-03-16T20:14:16.431Z,47.40
2024-03-16T20:16:42.707Z,49.60
2024-03-16T20:19:09.231Z,52.30
2024-03-16T20:21:36.301Z,45.20
2024-03-16T20:24:02.608Z,42.50
2024-03-16T20:26:29.164Z,41.60
2024-03-16T20:28:55.452Z,28.00
2024-03-16T20:31:21.623Z,25.30
2024-03-16T20:33:47.847Z,21.50
2024-03-16T20:36:14.371Z,21.00
2024-03-16T20:38:40.831Z,15.70
2024-03-16T20:41:11.791Z,14.80
2024-03-16T20:43:38.053Z,15.20
2024-03-16T20:46:04.268Z,12.80
2024-03-16T20:48:30.510Z,11.60
2024-03-16T20:50:56.916Z,10.60
2024-03-16T20:53:24.917Z,8.80
2024-03-16T20:55:53.099Z,5.50
2024-03-16T20:58:20.661Z,6.00
2024-03-16T21:00:47.303Z,6.30
2024-03-16T21:03:13.586Z,5.50
2024-03-16T21:05:40.095Z,3.90
2024-03-16T21:08:06.487Z,2.80
2024-03-16T21:10:33.160Z,2.70
2024-03-16T21:12:59.901Z,2.90
2024-03-16T21:15:26.333Z,3.00
2024-03-16T21:17:52.490Z,2.70
2024-03-16T21:20:20.261Z,3.00
2024-03-16T21:22:46.558Z,2.80
2024-03-16T21:25:12.769Z,2.90
2024-03-16T21:27:41.295Z,2.70
2024-03-16T21:30:10.536Z,2.50
2024-03-16T21:32:43.950Z,3.00
2024-03-16T21:35:13.808Z,3.90
2024-03-16T21:37:40.365Z,3.80
2024-03-16T21:40:07.729Z,2.90
2024-03-16T21:42:33.964Z,4.30
2024-03-16T21:45:00.381Z,3.30
2024-03-16T21:47:26.669Z,2.50
2024-03-16T21:49:52.872Z,2.50
2024-03-16T21:52:19.982Z,2.90
2024-03-16T21:54:46.226Z,2.90
2024-03-16T21:57:12.448Z,1.90
2024-03-16T21:59:38.720Z,2.20
2024-03-16T22:02:07.433Z,1.70
2024-03-16T22:04:33.693Z,1.80
2024-03-16T22:07:01.278Z,1.90
2024-03-16T22:09:27.707Z,2.00
2024-03-16T22:11:53.835Z,2.00
2024-03-16T22:14:20.156Z,3.10
2024-03-16T22:16:46.780Z,2.90
2024-03-16T22:19:13.279Z,2.90
2024-03-16T22:21:39.978Z,3.80
2024-03-16T22:24:08.180Z,3.50
2024-03-16T22:26:34.509Z,3.70
2024-03-16T22:29:00.771Z,2.60
2024-03-16T22:31:30.359Z,2.70
2024-03-16T22:33:56.627Z,7.70
2024-03-16T22:36:28.549Z,4.70
2024-03-16T22:38:55.475Z,3.20
2024-03-16T22:41:21.608Z,3.10
2024-03-16T22:43:48.145Z,3.30
2024-03-16T22:46:14.431Z,3.40
2024-03-16T22:48:40.636Z,4.80
2024-03-16T22:51:06.750Z,6.80
2024-03-16T22:53:33.272Z,6.10
2024-03-16T22:55:59.870Z,6.50
2024-03-16T22:58:26.233Z,7.40
2024-03-16T23:00:52.442Z,4.50
2024-03-16T23:03:18.941Z,3.70
2024-03-16T23:05:45.568Z,4.20
2024-03-16T23:08:11.800Z,3.90
2024-03-16T23:10:37.922Z,4.50
2024-03-16T23:13:04.355Z,5.30
2024-03-16T23:15:31.463Z,5.40
2024-03-16T23:17:58.922Z,4.90
2024-03-16T23:20:25.547Z,4.60
2024-03-16T23:22:51.787Z,4.50
2024-03-16T23:25:17.943Z,4.90
2024-03-16T23:27:44.468Z,4.60
2024-03-16T23:30:12.259Z,4.50
2024-03-16T23:32:39.256Z,3.60
2024-03-16T23:35:05.493Z,3.60
2024-03-16T23:37:33.985Z,3.70
2024-03-16T23:40:00.647Z,3.90
2024-03-16T23:42:29.245Z,3.30
2024-03-16T23:44:55.447Z,2.40
2024-03-16T23:47:24.274Z,2.40
2024-03-16T23:49:51.472Z,2.10
2024-03-16T23:52:17.821Z,2.60
2024-03-16T23:54:45.031Z,2.30
2024-03-16T23:57:11.163Z,2.40
2024-03-16T23:59:37.379Z,3.50
